createdAt,value
2019-02-24T00:00:39.625Z,24.18
2019-02-24T00:03:08.516Z,25.82
2019-02-24T00:05:37.378Z,24.92
2019-02-24T00:08:06.327Z,25.23
2019-02-24T00:10:35.220Z,25.27
2019-02-24T00:13:04.115Z,23.85
2019-02-24T00:15:33.006Z,22.48
2019-02-24T00:18:02.445Z,21.60
2019-02-24T00:20:31.353Z,20.27
2019-02-24T00:23:00.226Z,21.17
2019-02-24T00:25:29.137Z,20.97
2019-02-24T00:28:06.773Z,21.73
2019-02-24T00:30:28.615Z,21.05
2019-02-24T00:32:57.505Z,19.75
2019-02-24T00:35:26.413Z,21.10
2019-02-24T00:37:55.266Z,18.73
2019-02-24T00:40:24.120Z,18.07
2019-02-24T00:42:53.007Z,17.50
2019-02-24T00:45:21.878Z,17.50
2019-02-24T00:47:50.757Z,17.50
2019-02-24T00:50:19.634Z,17.20
2019-02-24T00:52:48.487Z,17.42
2019-02-24T00:55:17.368Z,16.82
2019-02-24T00:57:46.253Z,18.07
2019-02-24T01:00:15.189Z,24.47
2019-02-24T01:02:44.086Z,22.73
2019-02-24T01:05:12.943Z,19.92
2019-02-24T01:07:41.825Z,19.80
2019-02-24T01:10:11.087Z,20.50
2019-02-24T01:12:39.904Z,18.92
2019-02-24T01:15:10.442Z,19.73
2019-02-24T01:17:39.311Z,19.52
2019-02-24T01:20:09.509Z,19.60
2019-02-24T01:22:38.377Z,18.42
2019-02-24T01:25:07.666Z,18.50
2019-02-24T01:27:36.547Z,20.77
2019-02-24T01:30:07.657Z,21.12
2019-02-24T01:32:36.546Z,21.05
2019-02-24T01:35:07.060Z,32.00
2019-02-24T01:37:35.968Z,24.65
2019-02-24T01:40:06.719Z,22.20
2019-02-24T01:42:35.759Z,22.13
2019-02-24T01:45:05.854Z,20.05
2019-02-24T01:47:34.765Z,18.60
2019-02-24T01:50:04.114Z,18.77
2019-02-24T01:52:33.030Z,19.70
2019-02-24T01:55:01.923Z,16.77
2019-02-24T01:57:30.796Z,16.82
2019-02-24T01:59:59.680Z,16.30
2019-02-24T02:02:28.571Z,15.95
2019-02-24T02:04:58.561Z,15.45
2019-02-24T02:07:27.528Z,15.78
2019-02-24T02:09:56.408Z,15.25
2019-02-24T02:12:25.258Z,16.23
2019-02-24T02:14:54.162Z,16.30
2019-02-24T02:17:23.023Z,16.15
2019-02-24T02:19:51.918Z,16.37
2019-02-24T02:22:20.796Z,17.00
2019-02-24T02:24:49.662Z,17.15
2019-02-24T02:27:18.563Z,18.80
2019-02-24T02:29:47.428Z,18.70
2019-02-24T02:32:16.282Z,19.32
2019-02-24T02:34:45.188Z,17.77
2019-02-24T02:37:14.049Z,17.37
2019-02-24T02:39:42.938Z,17.80
2019-02-24T02:42:11.810Z,17.20
2019-02-24T02:44:40.700Z,16.77
2019-02-24T02:47:09.589Z,15.98
2019-02-24T02:49:38.482Z,18.87
2019-02-24T02:52:07.350Z,16.75
2019-02-24T02:54:36.261Z,18.70
2019-02-24T02:57:05.113Z,16.27
2019-02-24T02:59:33.982Z,18.00
2019-02-24T03:02:04.501Z,17.00
2019-02-24T03:04:33.385Z,16.17
2019-02-24T03:07:09.570Z,15.58
2019-02-24T03:09:38.457Z,18.42
2019-02-24T03:12:07.338Z,16.60
2019-02-24T03:14:36.200Z,17.77
2019-02-24T03:17:05.105Z,16.73
2019-02-24T03:19:33.996Z,15.85
2019-02-24T03:22:02.853Z,16.82
2019-02-24T03:24:31.754Z,17.65
2019-02-24T03:27:00.622Z,15.25
2019-02-24T03:29:29.507Z,17.10
2019-02-24T03:31:58.390Z,16.30
2019-02-24T03:34:27.300Z,15.60
2019-02-24T03:36:56.186Z,15.45
2019-02-24T03:39:25.063Z,15.23
2019-02-24T03:41:53.946Z,15.58
2019-02-24T03:44:22.811Z,14.58
2019-02-24T03:46:51.734Z,13.65
2019-02-24T03:49:20.641Z,14.43
2019-02-24T03:51:49.539Z,14.35
2019-02-24T03:54:18.430Z,15.30
2019-02-24T03:56:47.295Z,13.58
2019-02-24T03:59:16.210Z,14.85
2019-02-24T04:01:45.075Z,14.33
2019-02-24T04:04:13.943Z,13.72
2019-02-24T04:06:44.361Z,13.68
2019-02-24T04:09:13.237Z,14.70
2019-02-24T04:11:42.176Z,12.23
2019-02-24T04:14:11.051Z,10.75
2019-02-24T04:16:39.931Z,14.10
2019-02-24T04:19:08.813Z,13.35
2019-02-24T04:21:37.706Z,11.78
2019-02-24T04:24:06.570Z,12.25
2019-02-24T04:26:35.450Z,10.28
2019-02-24T04:29:04.429Z,11.20
2019-02-24T04:31:33.331Z,11.80
2019-02-24T04:34:02.258Z,11.88
2019-02-24T04:36:31.182Z,11.25
2019-02-24T04:39:00.082Z,11.15
2019-02-24T04:41:28.949Z,11.63
2019-02-24T04:43:57.824Z,11.38
2019-02-24T04:46:26.720Z,10.60
2019-02-24T04:48:55.590Z,11.08
2019-02-24T04:51:24.474Z,12.28
2019-02-24T04:53:53.369Z,11.75
2019-02-24T04:56:22.266Z,10.45
2019-02-24T04:58:51.131Z,10.70
2019-02-24T05:01:20.027Z,11.10
2019-02-24T05:03:48.893Z,11.08
2019-02-24T05:06:17.800Z,12.70
2019-02-24T05:08:46.694Z,12.18
2019-02-24T05:11:15.539Z,12.80
2019-02-24T05:13:44.426Z,12.68
2019-02-24T05:16:13.326Z,12.70
2019-02-24T05:18:42.205Z,11.55
2019-02-24T05:21:11.058Z,12.53
2019-02-24T05:23:39.941Z,10.88
2019-02-24T05:26:10.417Z,12.33
2019-02-24T05:28:39.277Z,12.82
2019-02-24T05:31:08.159Z,12.68
2019-02-24T05:33:37.050Z,12.65
2019-02-24T05:36:05.935Z,12.80
2019-02-24T05:38:34.809Z,11.35
2019-02-24T05:41:03.699Z,11.40
2019-02-24T05:43:32.624Z,11.63
2019-02-24T05:46:01.532Z,12.30
2019-02-24T05:48:30.397Z,11.73
2019-02-24T05:50:59.296Z,11.12
2019-02-24T05:53:28.217Z,11.80
2019-02-24T05:55:57.089Z,12.33
2019-02-24T05:58:25.962Z,12.07
2019-02-24T06:00:54.922Z,11.57
2019-02-24T06:03:23.759Z,11.78
2019-02-24T06:05:52.639Z,12.70
2019-02-24T06:08:21.537Z,13.28
2019-02-24T06:10:50.443Z,12.05
2019-02-24T06:13:19.316Z,11.22
2019-02-24T06:15:48.215Z,12.43
2019-02-24T06:18:17.105Z,11.43
2019-02-24T06:20:45.978Z,12.35
2019-02-24T06:23:14.854Z,11.70
2019-02-24T06:25:43.778Z,12.15
2019-02-24T06:28:12.657Z,11.80
2019-02-24T06:30:41.513Z,12.73
2019-02-24T06:33:10.387Z,12.05
2019-02-24T06:35:39.296Z,12.65
2019-02-24T06:38:08.186Z,13.45
2019-02-24T06:40:37.049Z,11.95
2019-02-24T06:43:05.957Z,10.13
2019-02-24T06:45:34.845Z,10.58
2019-02-24T06:48:03.715Z,12.53
2019-02-24T06:50:35.562Z,11.55
2019-02-24T06:53:04.703Z,12.25
2019-02-24T06:55:33.591Z,11.73
2019-02-24T06:58:02.467Z,11.40
2019-02-24T07:00:31.363Z,10.50
2019-02-24T07:03:00.248Z,12.55
2019-02-24T07:05:29.123Z,10.98
2019-02-24T07:07:58.000Z,11.05
2019-02-24T07:10:26.864Z,11.30
2019-02-24T07:12:55.753Z,12.82
2019-02-24T07:15:24.645Z,13.65
2019-02-24T07:17:53.532Z,10.95
2019-02-24T07:20:22.388Z,10.98
2019-02-24T07:22:51.294Z,11.65
2019-02-24T07:25:20.191Z,10.48
2019-02-24T07:27:49.061Z,11.15
2019-02-24T07:30:23.603Z,12.00
2019-02-24T07:32:48.532Z,11.22
2019-02-24T07:35:17.394Z,12.73
2019-02-24T07:37:46.277Z,11.55
2019-02-24T07:40:15.141Z,10.60
2019-02-24T07:42:44.061Z,10.35
2019-02-24T07:45:12.949Z,12.03
2019-02-24T07:47:41.811Z,13.15
2019-02-24T07:50:10.736Z,13.30
2019-02-24T07:52:39.625Z,10.90
2019-02-24T07:55:08.483Z,10.38
2019-02-24T07:57:37.364Z,9.80
2019-02-24T08:00:09.245Z,10.88
2019-02-24T08:02:38.109Z,10.43
2019-02-24T08:05:08.035Z,12.18
2019-02-24T08:07:36.905Z,11.12
2019-02-24T08:10:07.823Z,11.45
2019-02-24T08:12:36.711Z,12.20
2019-02-24T08:15:07.837Z,12.15
2019-02-24T08:17:36.699Z,12.95
2019-02-24T08:20:08.374Z,13.10
2019-02-24T08:22:37.252Z,12.65
2019-02-24T08:25:07.600Z,14.45
2019-02-24T08:27:36.470Z,14.10
2019-02-24T08:30:08.407Z,13.18
2019-02-24T08:32:37.297Z,12.93
2019-02-24T08:35:07.531Z,11.50
2019-02-24T08:37:36.404Z,12.05
2019-02-24T08:40:07.317Z,12.63
2019-02-24T08:42:36.183Z,12.63
2019-02-24T08:45:08.226Z,11.70
2019-02-24T08:47:37.081Z,11.48
2019-02-24T08:50:08.900Z,11.90
2019-02-24T08:52:37.791Z,11.43
2019-02-24T08:55:07.997Z,11.88
2019-02-24T08:57:36.888Z,11.63
2019-02-24T09:00:15.957Z,11.53
2019-02-24T09:02:44.861Z,13.68
2019-02-24T09:05:13.759Z,11.45
2019-02-24T09:07:42.726Z,11.73
2019-02-24T09:10:11.599Z,10.88
2019-02-24T09:12:40.500Z,11.22
2019-02-24T09:15:15.808Z,10.55
2019-02-24T09:17:44.266Z,11.15
2019-02-24T09:20:14.064Z,10.90
2019-02-24T09:22:43.013Z,11.12
2019-02-24T09:25:11.897Z,11.43
2019-02-24T09:27:40.774Z,10.88
2019-02-24T09:30:12.062Z,10.88
2019-02-24T09:32:40.988Z,11.33
2019-02-24T09:35:10.359Z,12.07
2019-02-24T09:37:39.235Z,11.38
2019-02-24T09:40:10.885Z,9.55
2019-02-24T09:42:39.755Z,9.73
2019-02-24T09:45:10.679Z,8.80
2019-02-24T09:47:46.445Z,10.65
2019-02-24T09:50:10.813Z,10.58
2019-02-24T09:52:39.692Z,11.22
2019-02-24T09:55:09.709Z,9.93
2019-02-24T09:57:38.569Z,10.00
2019-02-24T10:00:12.825Z,10.00
2019-02-24T10:02:41.758Z,9.93
2019-02-24T10:05:10.638Z,9.88
2019-02-24T10:07:39.507Z,10.30
2019-02-24T10:10:10.931Z,9.60
2019-02-24T10:12:39.788Z,10.23
2019-02-24T10:15:14.042Z,9.95
2019-02-24T10:17:42.922Z,9.58
2019-02-24T10:20:12.917Z,10.13
2019-02-24T10:22:41.772Z,11.18
2019-02-24T10:25:10.835Z,10.28
2019-02-24T10:27:39.712Z,11.08
2019-02-24T10:30:11.614Z,11.35
2019-02-24T10:32:40.493Z,9.90
2019-02-24T10:35:09.445Z,10.68
2019-02-24T10:37:38.317Z,10.85
2019-02-24T10:40:14.665Z,10.23
2019-02-24T10:42:43.549Z,10.58
2019-02-24T10:45:14.953Z,9.65
2019-02-24T10:47:43.851Z,10.13
2019-02-24T10:50:14.330Z,9.50
2019-02-24T10:52:43.257Z,8.75
2019-02-24T10:55:12.386Z,9.55
2019-02-24T10:57:41.271Z,9.63
2019-02-24T11:00:15.303Z,9.58
2019-02-24T11:02:44.138Z,8.03
2019-02-24T11:05:13.796Z,8.50
2019-02-24T11:07:42.660Z,8.48
2019-02-24T11:10:11.703Z,8.40
2019-02-24T11:12:40.583Z,9.65
2019-02-24T11:15:13.423Z,9.50
2019-02-24T11:17:42.290Z,9.35
2019-02-24T11:20:18.349Z,8.85
2019-02-24T11:22:47.324Z,8.88
2019-02-24T11:25:15.944Z,8.80
2019-02-24T11:27:44.804Z,9.18
2019-02-24T11:30:16.108Z,7.23
2019-02-24T11:32:44.671Z,7.53
2019-02-24T11:35:13.827Z,7.33
2019-02-24T11:37:42.420Z,6.53
2019-02-24T11:40:13.028Z,7.20
2019-02-24T11:42:41.620Z,7.33
2019-02-24T11:45:10.463Z,7.03
2019-02-24T11:47:39.047Z,6.40
2019-02-24T11:50:09.667Z,7.07
2019-02-24T11:52:38.301Z,6.93
2019-02-24T11:55:08.771Z,5.87
2019-02-24T11:57:37.337Z,7.10
2019-02-24T12:00:09.177Z,7.60
2019-02-24T12:02:37.823Z,7.13
2019-02-24T12:05:07.951Z,7.30
2019-02-24T12:07:36.554Z,7.50
2019-02-24T12:10:08.279Z,7.80
2019-02-24T12:12:36.866Z,7.23
2019-02-24T12:15:10.908Z,6.73
2019-02-24T12:17:39.475Z,7.50
2019-02-24T12:20:10.559Z,7.93
2019-02-24T12:22:39.145Z,7.30
2019-02-24T12:25:09.646Z,11.83
2019-02-24T12:27:38.409Z,8.07
2019-02-24T12:30:14.506Z,10.07
2019-02-24T12:32:43.068Z,9.63
2019-02-24T12:35:11.759Z,7.40
2019-02-24T12:37:40.344Z,6.67
2019-02-24T12:40:10.639Z,6.17
2019-02-24T12:42:39.215Z,7.10
2019-02-24T12:45:11.691Z,7.57
2019-02-24T12:47:40.256Z,6.27
2019-02-24T12:50:10.881Z,6.20
2019-02-24T12:52:39.452Z,6.27
2019-02-24T12:55:09.157Z,6.27
2019-02-24T12:57:37.806Z,5.97
2019-02-24T13:00:18.305Z,6.23
2019-02-24T13:02:46.877Z,6.73
2019-02-24T13:05:15.516Z,7.03
2019-02-24T13:07:44.118Z,6.77
2019-02-24T13:10:15.330Z,5.17
2019-02-24T13:12:43.891Z,5.17
2019-02-24T13:15:12.527Z,4.60
2019-02-24T13:17:41.105Z,5.20
2019-02-24T13:20:11.214Z,5.17
2019-02-24T13:22:40.142Z,6.30
2019-02-24T13:25:13.171Z,6.93
2019-02-24T13:27:41.725Z,7.70
2019-02-24T13:30:12.814Z,6.57
2019-02-24T13:32:43.329Z,6.47
2019-02-24T13:35:11.907Z,6.20
2019-02-24T13:37:40.485Z,6.57
2019-02-24T13:40:11.025Z,4.77
2019-02-24T13:42:39.593Z,5.07
2019-02-24T13:45:11.554Z,5.63
2019-02-24T13:47:40.133Z,5.13
2019-02-24T13:50:08.934Z,4.90
2019-02-24T13:52:37.546Z,5.70
2019-02-24T13:55:09.047Z,3.97
2019-02-24T13:57:37.614Z,3.50
2019-02-24T14:00:09.242Z,3.70
2019-02-24T14:02:37.842Z,3.27
2019-02-24T14:05:06.606Z,4.50
2019-02-24T14:07:35.163Z,4.03
2019-02-24T14:10:04.499Z,4.07
2019-02-24T14:12:33.083Z,3.97
2019-02-24T14:15:01.654Z,3.60
2019-02-24T14:17:30.210Z,3.83
2019-02-24T14:19:59.937Z,4.40
2019-02-24T14:22:28.645Z,4.47
2019-02-24T14:24:57.255Z,3.83
2019-02-24T14:27:25.859Z,3.40
2019-02-24T14:29:54.427Z,4.17
2019-02-24T14:32:23.041Z,4.20
2019-02-24T14:34:51.594Z,4.00
2019-02-24T14:37:20.159Z,4.20
2019-02-24T14:39:48.774Z,4.97
2019-02-24T14:42:17.383Z,5.10
2019-02-24T14:44:45.943Z,3.87
2019-02-24T14:47:14.517Z,4.27
2019-02-24T14:49:43.107Z,4.63
2019-02-24T14:52:11.669Z,4.43
2019-02-24T14:54:40.337Z,5.10
2019-02-24T14:57:08.923Z,4.77
2019-02-24T14:59:37.502Z,4.33
2019-02-24T15:02:15.416Z,4.47
2019-02-24T15:04:43.963Z,4.53
2019-02-24T15:07:12.564Z,4.90
2019-02-24T15:09:41.121Z,5.17
2019-02-24T15:12:09.716Z,5.73
2019-02-24T15:14:38.328Z,5.07
2019-02-24T15:17:06.905Z,5.07
2019-02-24T15:19:35.491Z,5.13
2019-02-24T15:22:04.055Z,5.50
2019-02-24T15:24:32.652Z,5.20
2019-02-24T15:27:01.229Z,5.07
2019-02-24T15:29:29.816Z,5.87
2019-02-24T15:31:58.384Z,5.43
2019-02-24T15:34:26.938Z,7.97
2019-02-24T15:36:55.543Z,6.60
2019-02-24T15:39:24.134Z,6.87
2019-02-24T15:41:52.718Z,5.17
2019-02-24T15:44:21.322Z,5.63
2019-02-24T15:46:50.029Z,6.00
2019-02-24T15:49:18.590Z,5.10
2019-02-24T15:51:47.185Z,6.53
2019-02-24T15:54:15.747Z,8.87
2019-02-24T15:56:44.331Z,4.43
2019-02-24T15:59:13.688Z,5.90
2019-02-24T16:01:42.276Z,4.67
2019-02-24T16:04:10.826Z,6.03
2019-02-24T16:06:39.438Z,5.23
2019-02-24T16:09:08.739Z,5.07
2019-02-24T16:11:37.292Z,5.50
2019-02-24T16:14:05.868Z,5.50
2019-02-24T16:16:34.431Z,5.43
2019-02-24T16:19:02.985Z,5.43
2019-02-24T16:21:31.569Z,4.70
2019-02-24T16:24:00.125Z,5.83
2019-02-24T16:26:28.674Z,5.23
2019-02-24T16:28:57.275Z,5.63
2019-02-24T16:31:25.823Z,4.70
2019-02-24T16:33:54.386Z,5.37
2019-02-24T16:36:22.970Z,4.57
2019-02-24T16:38:51.555Z,4.63
2019-02-24T16:41:20.142Z,4.63
2019-02-24T16:43:48.714Z,5.70
2019-02-24T16:46:17.314Z,4.73
2019-02-24T16:48:45.870Z,5.40
2019-02-24T16:51:14.461Z,5.10
2019-02-24T16:53:43.034Z,5.50
2019-02-24T16:56:11.638Z,5.87
2019-02-24T16:58:40.227Z,6.10
2019-02-24T17:01:08.803Z,6.77
2019-02-24T17:03:37.383Z,6.17
2019-02-24T17:06:05.941Z,6.83
2019-02-24T17:08:34.503Z,6.47
2019-02-24T17:11:07.475Z,7.23
2019-02-24T17:13:33.432Z,7.27
2019-02-24T17:16:02.001Z,6.93
2019-02-24T17:18:30.606Z,8.00
2019-02-24T17:20:59.162Z,8.97
2019-02-24T17:23:27.750Z,7.80
2019-02-24T17:25:56.343Z,8.57
2019-02-24T17:28:26.530Z,8.73
2019-02-24T17:30:56.263Z,9.80
2019-02-24T17:33:30.073Z,10.47
2019-02-24T17:35:55.138Z,11.13
2019-02-24T17:38:23.814Z,9.70
2019-02-24T17:40:52.415Z,10.80
2019-02-24T17:43:21.011Z,10.53
2019-02-24T17:45:49.678Z,10.73
2019-02-24T17:48:19.765Z,10.87
2019-02-24T17:50:48.483Z,11.23
2019-02-24T17:53:17.095Z,10.20
2019-02-24T17:55:45.682Z,10.40
2019-02-24T17:58:14.256Z,9.40
2019-02-24T18:00:44.482Z,9.43
2019-02-24T18:03:13.102Z,10.00
2019-02-24T18:05:41.736Z,10.00
2019-02-24T18:08:11.944Z,9.20
2019-02-24T18:10:40.526Z,9.63
2019-02-24T18:13:09.104Z,11.20
2019-02-24T18:15:37.750Z,10.07
2019-02-24T18:18:06.327Z,10.93
2019-02-24T18:20:34.907Z,11.47
2019-02-24T18:23:03.533Z,12.50
2019-02-24T18:25:32.128Z,13.80
2019-02-24T18:28:00.728Z,13.13
2019-02-24T18:30:30.303Z,13.63
2019-02-24T18:32:59.989Z,12.60
2019-02-24T18:35:28.553Z,13.30
2019-02-24T18:37:57.169Z,11.63
2019-02-24T18:40:25.709Z,13.03
2019-02-24T18:43:00.328Z,15.10
2019-02-24T18:45:24.990Z,13.27
2019-02-24T18:47:53.573Z,13.40
2019-02-24T18:50:22.185Z,13.67
2019-02-24T18:52:50.768Z,13.20
2019-02-24T18:55:19.396Z,13.10
2019-02-24T18:57:47.996Z,12.30
2019-02-24T19:00:23.643Z,11.40
2019-02-24T19:02:52.224Z,13.17
2019-02-24T19:05:20.833Z,13.47
2019-02-24T19:07:49.387Z,12.97
2019-02-24T19:10:22.468Z,12.70
2019-02-24T19:12:51.062Z,12.33
2019-02-24T19:15:22.726Z,12.00
2019-02-24T19:17:51.307Z,12.90
2019-02-24T19:20:23.561Z,11.53
2019-02-24T19:22:52.148Z,11.37
2019-02-24T19:25:20.745Z,13.17
2019-02-24T19:27:49.350Z,13.47
2019-02-24T19:30:19.886Z,13.50
2019-02-24T19:32:48.489Z,12.83
2019-02-24T19:35:18.221Z,11.50
2019-02-24T19:37:46.990Z,12.50
2019-02-24T19:40:22.345Z,13.17
2019-02-24T19:42:51.237Z,13.20
2019-02-24T19:45:24.599Z,14.80
2019-02-24T19:47:53.223Z,13.47
2019-02-24T19:50:21.809Z,13.00
2019-02-24T19:52:50.408Z,13.67
2019-02-24T19:55:19.350Z,15.43
2019-02-24T19:57:48.439Z,17.57
2019-02-24T20:00:22.417Z,13.55
2019-02-24T20:02:51.386Z,14.10
2019-02-24T20:05:20.742Z,14.67
2019-02-24T20:07:49.597Z,12.63
2019-02-24T20:10:25.977Z,12.25
2019-02-24T20:12:54.596Z,12.77
2019-02-24T20:15:23.494Z,13.00
2019-02-24T20:17:52.175Z,14.17
2019-02-24T20:20:21.803Z,13.03
2019-02-24T20:22:50.692Z,14.07
2019-02-24T20:25:21.899Z,12.82
2019-02-24T20:27:50.809Z,12.78
2019-02-24T20:30:25.007Z,13.65
2019-02-24T20:32:53.884Z,14.78
2019-02-24T20:35:24.266Z,14.10
2019-02-24T20:37:53.308Z,14.60
2019-02-24T20:40:22.239Z,14.70
2019-02-24T20:42:51.146Z,15.13
2019-02-24T20:45:21.191Z,14.10
2019-02-24T20:47:50.258Z,12.20
2019-02-24T20:50:21.608Z,11.90
2019-02-24T20:52:50.519Z,13.15
2019-02-24T20:55:19.438Z,12.60
2019-02-24T20:57:48.386Z,13.35
2019-02-24T21:00:20.569Z,13.60
2019-02-24T21:02:49.453Z,12.73
2019-02-24T21:05:18.338Z,10.30
2019-02-24T21:07:48.493Z,11.43
2019-02-24T21:10:17.363Z,13.38
2019-02-24T21:12:47.948Z,13.55
2019-02-24T21:15:18.000Z,13.90
2019-02-24T21:17:46.915Z,13.95
2019-02-24T21:20:24.444Z,13.22
2019-02-24T21:22:53.367Z,14.03
2019-02-24T21:25:22.259Z,14.98
2019-02-24T21:27:51.013Z,16.20
2019-02-24T21:30:20.533Z,12.68
2019-02-24T21:32:49.474Z,12.75
2019-02-24T21:35:18.383Z,14.23
2019-02-24T21:37:47.297Z,12.98
2019-02-24T21:40:20.040Z,14.70
2019-02-24T21:42:48.894Z,13.88
2019-02-24T21:45:20.531Z,14.07
2019-02-24T21:47:49.421Z,13.32
2019-02-24T21:50:18.333Z,14.68
2019-02-24T21:52:47.195Z,12.85
2019-02-24T21:55:16.096Z,13.43
2019-02-24T21:57:44.986Z,14.63
2019-02-24T22:00:19.456Z,15.63
2019-02-24T22:02:48.379Z,15.25
2019-02-24T22:05:17.256Z,13.65
2019-02-24T22:07:46.145Z,14.85
2019-02-24T22:10:16.465Z,14.60
2019-02-24T22:12:45.394Z,15.60
2019-02-24T22:15:25.447Z,15.50
2019-02-24T22:17:54.511Z,14.98
2019-02-24T22:20:23.409Z,13.95
2019-02-24T22:22:52.290Z,13.83
2019-02-24T22:25:21.372Z,13.80
2019-02-24T22:27:50.247Z,12.90
2019-02-24T22:30:23.229Z,12.88
2019-02-24T22:32:52.126Z,12.53
2019-02-24T22:35:21.026Z,11.15
2019-02-24T22:37:49.886Z,13.15
2019-02-24T22:40:18.949Z,12.10
2019-02-24T22:42:47.818Z,12.75
2019-02-24T22:45:18.009Z,11.70
2019-02-24T22:47:47.240Z,13.00
2019-02-24T22:50:16.741Z,12.40
2019-02-24T22:52:46.776Z,11.83
2019-02-24T22:55:18.727Z,12.10
2019-02-24T22:57:47.790Z,12.33
2019-02-24T23:00:26.878Z,11.25
2019-02-24T23:02:55.911Z,12.00
2019-02-24T23:05:24.760Z,13.08
2019-02-24T23:07:53.649Z,12.80
2019-02-24T23:10:22.500Z,11.57
2019-02-24T23:12:51.400Z,12.47
2019-02-24T23:15:20.284Z,12.07
2019-02-24T23:17:49.228Z,12.00
2019-02-24T23:20:18.108Z,12.85
2019-02-24T23:22:46.968Z,12.73
2019-02-24T23:25:15.848Z,13.45
2019-02-24T23:27:44.747Z,12.33
2019-02-24T23:30:13.618Z,13.20
2019-02-24T23:32:42.490Z,13.28
2019-02-24T23:35:11.373Z,12.93
2019-02-24T23:37:40.227Z,13.68
2019-02-24T23:40:09.678Z,13.13
2019-02-24T23:42:38.553Z,13.40
2019-02-24T23:45:10.858Z,13.28
2019-02-24T23:47:40.005Z,12.75
2019-02-24T23:50:11.099Z,12.65
2019-02-24T23:52:40.030Z,13.13
2019-02-24T23:55:10.355Z,12.75
2019-02-24T23:57:39.239Z,12.73
